sensor_id;sensor_type;location;lat;lon;timestamp;P1;durP1;ratioP1;P2;durP2;ratioP2
2934;SDS011;2462;51.456;7.248;2023-07-31T00:00:01;2.13;;;1.87;;
2934;SDS011;2462;51.456;7.248;2023-07-31T00:02:27;3.47;;;1.97;;
2934;SDS011;2462;51.456;7.248;2023-07-31T00:04:53;2.87;;;1.80;;
2934;SDS011;2462;51.456;7.248;2023-07-31T00:07:19;2.57;;;2.03;;
2934;SDS011;2462;51.456;7.248;2023-07-31T00:09:45;4.07;;;2.10;;
2934;SDS011;2462;51.456;7.248;2023-07-31T00:12:11;4.07;;;2.60;;
2934;SDS011;2462;51.456;7.248;2023-07-31T00:14:37;3.30;;;1.80;;
2934;SDS011;2462;51.456;7.248;2023-07-31T00:17:03;2.40;;;2.00;;
2934;SDS011;2462;51.456;7.248;2023-07-31T00:19:29;5.10;;;2.17;;
2934;SDS011;2462;51.456;7.248;2023-07-31T00:21:55;4.20;;;2.60;;
2934;SDS011;2462;51.456;7.248;2023-07-31T00:24:21;2.37;;;2.10;;
2934;SDS011;2462;51.456;7.248;2023-07-31T00:26:47;2.90;;;1.80;;
2934;SDS011;2462;51.456;7.248;2023-07-31T00:29:13;3.13;;;2.27;;
2934;SDS011;2462;51.456;7.248;2023-07-31T00:31:39;3.50;;;2.50;;
2934;SDS011;2462;51.456;7.248;2023-07-31T00:34:05;5.07;;;2.60;;
2934;SDS011;2462;51.456;7.248;2023-07-31T00:36:31;2.60;;;2.10;;
2934;SDS011;2462;51.456;7.248;2023-07-31T00:38:57;4.83;;;2.37;;
2934;SDS011;2462;51.456;7.248;2023-07-31T00:41:23;3.13;;;2.13;;
2934;SDS011;2462;51.456;7.248;2023-07-31T00:43:48;4.80;;;2.17;;
2934;SDS011;2462;51.456;7.248;2023-07-31T00:46:14;3.50;;;2.50;;
2934;SDS011;2462;51.456;7.248;2023-07-31T00:48:40;4.10;;;2.57;;
2934;SDS011;2462;51.456;7.248;2023-07-31T00:51:07;2.60;;;1.80;;
2934;SDS011;2462;51.456;7.248;2023-07-31T00:53:34;3.13;;;2.10;;
2934;SDS011;2462;51.456;7.248;2023-07-31T00:56:00;2.90;;;1.90;;
2934;SDS011;2462;51.456;7.248;2023-07-31T00:58:26;2.80;;;2.27;;
2934;SDS011;2462;51.456;7.248;2023-07-31T01:00:52;2.60;;;2.10;;
2934;SDS011;2462;51.456;7.248;2023-07-31T01:03:18;4.10;;;3.07;;
2934;SDS011;2462;51.456;7.248;2023-07-31T01:08:41;3.30;;;2.27;;
2934;SDS011;2462;51.456;7.248;2023-07-31T01:11:15;5.53;;;2.80;;
2934;SDS011;2462;51.456;7.248;2023-07-31T01:13:44;3.97;;;2.70;;
2934;SDS011;2462;51.456;7.248;2023-07-31T01:16:10;3.57;;;2.80;;
2934;SDS011;2462;51.456;7.248;2023-07-31T01:18:36;4.50;;;2.37;;
2934;SDS011;2462;51.456;7.248;2023-07-31T01:26:23;8.90;;;2.80;;
2934;SDS011;2462;51.456;7.248;2023-07-31T01:31:24;5.53;;;2.37;;
2934;SDS011;2462;51.456;7.248;2023-07-31T01:33:54;5.10;;;3.47;;
2934;SDS011;2462;51.456;7.248;2023-07-31T01:36:22;4.67;;;2.97;;
2934;SDS011;2462;51.456;7.248;2023-07-31T01:38:48;5.50;;;3.20;;
2934;SDS011;2462;51.456;7.248;2023-07-31T01:41:16;2.97;;;2.50;;
2934;SDS011;2462;51.456;7.248;2023-07-31T01:43:42;6.10;;;3.50;;
2934;SDS011;2462;51.456;7.248;2023-07-31T01:46:08;5.73;;;2.70;;
2934;SDS011;2462;51.456;7.248;2023-07-31T01:48:34;2.87;;;2.20;;
2934;SDS011;2462;51.456;7.248;2023-07-31T01:51:01;4.50;;;2.70;;
2934;SDS011;2462;51.456;7.248;2023-07-31T01:53:28;2.93;;;2.00;;
2934;SDS011;2462;51.456;7.248;2023-07-31T01:55:54;5.33;;;2.30;;
2934;SDS011;2462;51.456;7.248;2023-07-31T01:58:20;3.70;;;2.43;;
2934;SDS011;2462;51.456;7.248;2023-07-31T02:00:46;4.20;;;2.50;;
2934;SDS011;2462;51.456;7.248;2023-07-31T02:03:12;3.50;;;2.33;;
2934;SDS011;2462;51.456;7.248;2023-07-31T02:05:47;5.20;;;2.53;;
2934;SDS011;2462;51.456;7.248;2023-07-31T02:08:14;3.37;;;2.33;;
2934;SDS011;2462;51.456;7.248;2023-07-31T02:10:40;3.03;;;2.20;;
2934;SDS011;2462;51.456;7.248;2023-07-31T02:13:06;7.60;;;2.70;;
2934;SDS011;2462;51.456;7.248;2023-07-31T02:15:32;4.33;;;2.43;;
2934;SDS011;2462;51.456;7.248;2023-07-31T02:17:58;5.70;;;2.60;;
2934;SDS011;2462;51.456;7.248;2023-07-31T02:20:24;5.30;;;3.00;;
2934;SDS011;2462;51.456;7.248;2023-07-31T02:22:50;4.10;;;2.33;;
2934;SDS011;2462;51.456;7.248;2023-07-31T02:25:16;5.83;;;2.50;;
2934;SDS011;2462;51.456;7.248;2023-07-31T02:27:42;3.70;;;2.33;;
2934;SDS011;2462;51.456;7.248;2023-07-31T02:30:08;6.17;;;2.70;;
2934;SDS011;2462;51.456;7.248;2023-07-31T02:32:34;4.27;;;2.80;;
2934;SDS011;2462;51.456;7.248;2023-07-31T02:35:00;5.83;;;2.60;;
2934;SDS011;2462;51.456;7.248;2023-07-31T02:37:26;3.73;;;2.50;;
2934;SDS011;2462;51.456;7.248;2023-07-31T02:39:53;4.80;;;3.07;;
2934;SDS011;2462;51.456;7.248;2023-07-31T02:42:19;4.33;;;2.93;;
2934;SDS011;2462;51.456;7.248;2023-07-31T02:44:45;4.47;;;2.67;;
2934;SDS011;2462;51.456;7.248;2023-07-31T02:47:11;6.50;;;2.90;;
2934;SDS011;2462;51.456;7.248;2023-07-31T02:49:37;4.63;;;2.23;;
2934;SDS011;2462;51.456;7.248;2023-07-31T02:52:03;4.97;;;2.80;;
2934;SDS011;2462;51.456;7.248;2023-07-31T02:54:29;3.50;;;2.60;;
2934;SDS011;2462;51.456;7.248;2023-07-31T02:56:55;6.87;;;2.70;;
2934;SDS011;2462;51.456;7.248;2023-07-31T02:59:21;5.30;;;2.30;;
2934;SDS011;2462;51.456;7.248;2023-07-31T03:01:47;7.83;;;3.20;;
2934;SDS011;2462;51.456;7.248;2023-07-31T03:04:13;5.37;;;2.70;;
2934;SDS011;2462;51.456;7.248;2023-07-31T03:06:39;4.90;;;3.50;;
2934;SDS011;2462;51.456;7.248;2023-07-31T03:09:05;4.00;;;2.70;;
2934;SDS011;2462;51.456;7.248;2023-07-31T03:11:31;5.83;;;2.57;;
2934;SDS011;2462;51.456;7.248;2023-07-31T03:13:57;4.60;;;2.53;;
2934;SDS011;2462;51.456;7.248;2023-07-31T03:16:23;3.00;;;2.30;;
2934;SDS011;2462;51.456;7.248;2023-07-31T03:18:49;5.63;;;3.50;;
2934;SDS011;2462;51.456;7.248;2023-07-31T03:21:15;3.13;;;2.53;;
2934;SDS011;2462;51.456;7.248;2023-07-31T03:23:41;5.27;;;3.00;;
2934;SDS011;2462;51.456;7.248;2023-07-31T03:26:08;3.03;;;2.47;;
2934;SDS011;2462;51.456;7.248;2023-07-31T03:28:34;4.70;;;2.80;;
2934;SDS011;2462;51.456;7.248;2023-07-31T03:31:00;7.40;;;3.40;;
2934;SDS011;2462;51.456;7.248;2023-07-31T03:33:26;5.10;;;3.20;;
2934;SDS011;2462;51.456;7.248;2023-07-31T03:35:52;6.17;;;2.90;;
2934;SDS011;2462;51.456;7.248;2023-07-31T03:38:18;6.03;;;2.77;;
2934;SDS011;2462;51.456;7.248;2023-07-31T03:40:44;5.27;;;2.80;;
2934;SDS011;2462;51.456;7.248;2023-07-31T03:43:10;7.30;;;3.30;;
2934;SDS011;2462;51.456;7.248;2023-07-31T03:45:36;5.90;;;2.43;;
2934;SDS011;2462;51.456;7.248;2023-07-31T03:48:03;5.50;;;3.33;;
2934;SDS011;2462;51.456;7.248;2023-07-31T03:50:29;7.37;;;2.47;;
2934;SDS011;2462;51.456;7.248;2023-07-31T03:52:55;4.57;;;2.90;;
2934;SDS011;2462;51.456;7.248;2023-07-31T03:55:21;5.97;;;2.53;;
2934;SDS011;2462;51.456;7.248;2023-07-31T03:57:47;4.60;;;2.93;;
2934;SDS011;2462;51.456;7.248;2023-07-31T04:00:13;6.97;;;3.53;;
2934;SDS011;2462;51.456;7.248;2023-07-31T04:02:39;5.63;;;3.30;;
2934;SDS011;2462;51.456;7.248;2023-07-31T04:05:05;3.93;;;2.60;;
2934;SDS011;2462;51.456;7.248;2023-07-31T04:07:31;4.70;;;2.63;;
2934;SDS011;2462;51.456;7.248;2023-07-31T04:09:57;5.13;;;2.70;;
2934;SDS011;2462;51.456;7.248;2023-07-31T04:12:23;5.90;;;3.57;;
2934;SDS011;2462;51.456;7.248;2023-07-31T04:14:49;4.90;;;2.40;;
2934;SDS011;2462;51.456;7.248;2023-07-31T04:17:15;4.50;;;2.90;;
2934;SDS011;2462;51.456;7.248;2023-07-31T04:19:41;4.27;;;3.30;;
2934;SDS011;2462;51.456;7.248;2023-07-31T04:22:07;5.70;;;2.87;;
2934;SDS011;2462;51.456;7.248;2023-07-31T04:24:33;5.77;;;3.07;;
2934;SDS011;2462;51.456;7.248;2023-07-31T04:26:59;3.77;;;3.20;;
2934;SDS011;2462;51.456;7.248;2023-07-31T04:29:24;6.30;;;2.70;;
2934;SDS011;2462;51.456;7.248;2023-07-31T04:31:50;3.70;;;2.53;;
2934;SDS011;2462;51.456;7.248;2023-07-31T04:34:16;7.07;;;2.80;;
2934;SDS011;2462;51.456;7.248;2023-07-31T04:36:42;4.20;;;3.10;;
2934;SDS011;2462;51.456;7.248;2023-07-31T04:39:08;3.00;;;2.20;;
2934;SDS011;2462;51.456;7.248;2023-07-31T04:41:34;5.83;;;3.10;;
2934;SDS011;2462;51.456;7.248;2023-07-31T04:44:00;3.77;;;2.60;;
2934;SDS011;2462;51.456;7.248;2023-07-31T04:46:28;6.30;;;3.03;;
2934;SDS011;2462;51.456;7.248;2023-07-31T04:51:22;3.80;;;2.70;;
2934;SDS011;2462;51.456;7.248;2023-07-31T04:53:48;5.40;;;2.57;;
2934;SDS011;2462;51.456;7.248;2023-07-31T04:56:15;7.53;;;4.03;;
2934;SDS011;2462;51.456;7.248;2023-07-31T04:58:41;3.73;;;2.37;;
2934;SDS011;2462;51.456;7.248;2023-07-31T05:01:07;4.07;;;2.47;;
2934;SDS011;2462;51.456;7.248;2023-07-31T05:03:33;5.60;;;2.83;;
2934;SDS011;2462;51.456;7.248;2023-07-31T05:05:59;4.40;;;2.40;;
2934;SDS011;2462;51.456;7.248;2023-07-31T05:08:25;4.80;;;2.93;;
2934;SDS011;2462;51.456;7.248;2023-07-31T05:10:51;4.00;;;3.20;;
2934;SDS011;2462;51.456;7.248;2023-07-31T05:13:17;6.67;;;3.20;;
2934;SDS011;2462;51.456;7.248;2023-07-31T05:15:43;5.30;;;3.40;;
2934;SDS011;2462;51.456;7.248;2023-07-31T05:18:09;6.60;;;2.73;;
2934;SDS011;2462;51.456;7.248;2023-07-31T05:20:35;6.70;;;4.33;;
2934;SDS011;2462;51.456;7.248;2023-07-31T05:23:01;5.47;;;2.80;;
2934;SDS011;2462;51.456;7.248;2023-07-31T05:25:26;5.10;;;2.50;;
2934;SDS011;2462;51.456;7.248;2023-07-31T05:27:52;4.10;;;2.57;;
2934;SDS011;2462;51.456;7.248;2023-07-31T05:30:18;4.63;;;2.80;;
2934;SDS011;2462;51.456;7.248;2023-07-31T05:32:46;3.80;;;2.80;;
2934;SDS011;2462;51.456;7.248;2023-07-31T05:35:12;5.20;;;2.70;;
2934;SDS011;2462;51.456;7.248;2023-07-31T05:37:38;4.77;;;2.77;;
2934;SDS011;2462;51.456;7.248;2023-07-31T05:40:04;3.83;;;2.77;;
2934;SDS011;2462;51.456;7.248;2023-07-31T05:42:30;3.43;;;3.13;;
2934;SDS011;2462;51.456;7.248;2023-07-31T05:44:56;4.93;;;3.07;;
2934;SDS011;2462;51.456;7.248;2023-07-31T05:47:22;3.07;;;2.77;;
2934;SDS011;2462;51.456;7.248;2023-07-31T05:49:48;5.80;;;3.37;;
2934;SDS011;2462;51.456;7.248;2023-07-31T05:52:14;3.90;;;3.00;;
2934;SDS011;2462;51.456;7.248;2023-07-31T05:54:41;5.70;;;3.63;;
2934;SDS011;2462;51.456;7.248;2023-07-31T05:57:07;4.50;;;3.20;;
2934;SDS011;2462;51.456;7.248;2023-07-31T05:59:33;3.97;;;2.73;;
2934;SDS011;2462;51.456;7.248;2023-07-31T06:01:59;3.80;;;2.83;;
2934;SDS011;2462;51.456;7.248;2023-07-31T06:04:25;6.50;;;3.13;;
2934;SDS011;2462;51.456;7.248;2023-07-31T06:06:51;5.03;;;3.17;;
2934;SDS011;2462;51.456;7.248;2023-07-31T06:09:17;5.97;;;3.10;;
2934;SDS011;2462;51.456;7.248;2023-07-31T06:11:44;6.40;;;2.90;;
2934;SDS011;2462;51.456;7.248;2023-07-31T06:14:10;3.93;;;2.70;;
2934;SDS011;2462;51.456;7.248;2023-07-31T06:16:36;4.30;;;3.10;;
2934;SDS011;2462;51.456;7.248;2023-07-31T06:19:02;4.30;;;2.40;;
2934;SDS011;2462;51.456;7.248;2023-07-31T06:21:28;3.10;;;2.57;;
2934;SDS011;2462;51.456;7.248;2023-07-31T06:23:55;4.60;;;3.10;;
2934;SDS011;2462;51.456;7.248;2023-07-31T06:26:21;4.53;;;2.47;;
2934;SDS011;2462;51.456;7.248;2023-07-31T06:28:46;5.77;;;3.33;;
2934;SDS011;2462;51.456;7.248;2023-07-31T06:31:12;6.33;;;3.60;;
2934;SDS011;2462;51.456;7.248;2023-07-31T06:33:38;7.20;;;4.00;;
2934;SDS011;2462;51.456;7.248;2023-07-31T06:36:04;4.67;;;3.27;;
2934;SDS011;2462;51.456;7.248;2023-07-31T06:38:30;3.43;;;2.90;;
2934;SDS011;2462;51.456;7.248;2023-07-31T06:40:56;3.57;;;2.73;;
2934;SDS011;2462;51.456;7.248;2023-07-31T06:43:22;3.73;;;2.83;;
2934;SDS011;2462;51.456;7.248;2023-07-31T06:45:48;5.33;;;3.03;;
2934;SDS011;2462;51.456;7.248;2023-07-31T06:48:16;4.23;;;2.70;;
2934;SDS011;2462;51.456;7.248;2023-07-31T06:50:42;4.47;;;3.20;;
2934;SDS011;2462;51.456;7.248;2023-07-31T06:53:08;3.97;;;2.57;;
2934;SDS011;2462;51.456;7.248;2023-07-31T06:55:34;5.90;;;3.13;;
2934;SDS011;2462;51.456;7.248;2023-07-31T06:58:00;5.50;;;3.47;;
2934;SDS011;2462;51.456;7.248;2023-07-31T07:00:26;4.60;;;3.27;;
2934;SDS011;2462;51.456;7.248;2023-07-31T07:02:52;5.37;;;2.97;;
2934;SDS011;2462;51.456;7.248;2023-07-31T07:05:18;4.83;;;3.10;;
2934;SDS011;2462;51.456;7.248;2023-07-31T07:07:44;4.30;;;2.70;;
2934;SDS011;2462;51.456;7.248;2023-07-31T07:10:10;3.40;;;3.07;;
2934;SDS011;2462;51.456;7.248;2023-07-31T07:12:37;7.40;;;3.00;;
2934;SDS011;2462;51.456;7.248;2023-07-31T07:15:03;3.80;;;2.50;;
2934;SDS011;2462;51.456;7.248;2023-07-31T07:17:29;4.20;;;3.23;;
2934;SDS011;2462;51.456;7.248;2023-07-31T07:19:58;4.67;;;3.63;;
2934;SDS011;2462;51.456;7.248;2023-07-31T07:22:25;5.30;;;3.80;;
2934;SDS011;2462;51.456;7.248;2023-07-31T07:24:51;3.73;;;2.93;;
2934;SDS011;2462;51.456;7.248;2023-07-31T07:27:17;5.93;;;3.03;;
2934;SDS011;2462;51.456;7.248;2023-07-31T07:29:43;4.27;;;3.47;;
2934;SDS011;2462;51.456;7.248;2023-07-31T07:32:09;4.63;;;2.60;;
2934;SDS011;2462;51.456;7.248;2023-07-31T07:34:36;3.80;;;2.77;;
2934;SDS011;2462;51.456;7.248;2023-07-31T07:37:02;2.90;;;2.33;;
2934;SDS011;2462;51.456;7.248;2023-07-31T07:39:28;3.77;;;3.10;;
2934;SDS011;2462;51.456;7.248;2023-07-31T07:41:55;3.10;;;2.70;;
2934;SDS011;2462;51.456;7.248;2023-07-31T07:44:21;3.57;;;2.97;;
2934;SDS011;2462;51.456;7.248;2023-07-31T07:46:47;3.73;;;3.17;;
2934;SDS011;2462;51.456;7.248;2023-07-31T07:49:13;3.37;;;2.60;;
2934;SDS011;2462;51.456;7.248;2023-07-31T07:51:39;3.97;;;3.00;;
2934;SDS011;2462;51.456;7.248;2023-07-31T07:54:05;5.93;;;3.70;;
2934;SDS011;2462;51.456;7.248;2023-07-31T07:56:32;5.40;;;3.37;;
2934;SDS011;2462;51.456;7.248;2023-07-31T07:58:58;6.20;;;3.07;;
2934;SDS011;2462;51.456;7.248;2023-07-31T08:01:24;3.77;;;2.87;;
2934;SDS011;2462;51.456;7.248;2023-07-31T08:03:50;2.97;;;2.53;;
2934;SDS011;2462;51.456;7.248;2023-07-31T08:06:16;5.00;;;3.00;;
2934;SDS011;2462;51.456;7.248;2023-07-31T08:08:42;5.10;;;3.10;;
2934;SDS011;2462;51.456;7.248;2023-07-31T08:11:08;2.40;;;2.20;;
2934;SDS011;2462;51.456;7.248;2023-07-31T08:13:34;3.90;;;2.50;;
2934;SDS011;2462;51.456;7.248;2023-07-31T08:16:01;4.67;;;2.90;;
2934;SDS011;2462;51.456;7.248;2023-07-31T08:18:27;4.73;;;2.73;;
2934;SDS011;2462;51.456;7.248;2023-07-31T08:20:53;3.00;;;2.33;;
2934;SDS011;2462;51.456;7.248;2023-07-31T08:23:19;4.63;;;2.90;;
2934;SDS011;2462;51.456;7.248;2023-07-31T08:25:45;5.23;;;2.53;;
2934;SDS011;2462;51.456;7.248;2023-07-31T08:28:11;2.87;;;2.10;;
2934;SDS011;2462;51.456;7.248;2023-07-31T08:30:37;3.60;;;2.30;;
2934;SDS011;2462;51.456;7.248;2023-07-31T08:33:03;3.40;;;2.10;;
2934;SDS011;2462;51.456;7.248;2023-07-31T08:35:29;6.50;;;2.50;;
2934;SDS011;2462;51.456;7.248;2023-07-31T08:37:55;5.00;;;2.47;;
2934;SDS011;2462;51.456;7.248;2023-07-31T08:40:21;2.00;;;1.70;;
2934;SDS011;2462;51.456;7.248;2023-07-31T08:42:49;13.83;;;3.37;;
2934;SDS011;2462;51.456;7.248;2023-07-31T08:45:18;12.10;;;3.20;;
2934;SDS011;2462;51.456;7.248;2023-07-31T08:47:46;4.03;;;2.53;;
2934;SDS011;2462;51.456;7.248;2023-07-31T08:50:13;3.27;;;2.20;;
2934;SDS011;2462;51.456;7.248;2023-07-31T08:52:39;3.87;;;2.07;;
2934;SDS011;2462;51.456;7.248;2023-07-31T08:55:05;3.23;;;2.07;;
2934;SDS011;2462;51.456;7.248;2023-07-31T08:57:31;3.03;;;1.97;;
2934;SDS011;2462;51.456;7.248;2023-07-31T08:59:59;4.53;;;2.50;;
2934;SDS011;2462;51.456;7.248;2023-07-31T09:02:25;11.37;;;3.03;;
2934;SDS011;2462;51.456;7.248;2023-07-31T09:04:52;4.13;;;2.10;;
2934;SDS011;2462;51.456;7.248;2023-07-31T09:07:18;3.80;;;2.60;;
2934;SDS011;2462;51.456;7.248;2023-07-31T09:09:45;5.50;;;3.17;;
2934;SDS011;2462;51.456;7.248;2023-07-31T09:12:11;2.83;;;1.80;;
2934;SDS011;2462;51.456;7.248;2023-07-31T09:14:37;4.10;;;2.63;;
2934;SDS011;2462;51.456;7.248;2023-07-31T09:17:03;4.10;;;2.13;;
2934;SDS011;2462;51.456;7.248;2023-07-31T09:19:32;5.00;;;2.20;;
2934;SDS011;2462;51.456;7.248;2023-07-31T09:21:59;3.53;;;2.10;;
2934;SDS011;2462;51.456;7.248;2023-07-31T09:24:25;3.60;;;2.10;;
2934;SDS011;2462;51.456;7.248;2023-07-31T09:26:53;3.00;;;1.97;;
2934;SDS011;2462;51.456;7.248;2023-07-31T09:29:20;2.87;;;1.63;;
2934;SDS011;2462;51.456;7.248;2023-07-31T09:31:46;2.40;;;2.00;;
2934;SDS011;2462;51.456;7.248;2023-07-31T09:34:12;2.70;;;2.07;;
2934;SDS011;2462;51.456;7.248;2023-07-31T09:36:45;2.90;;;1.60;;
2934;SDS011;2462;51.456;7.248;2023-07-31T09:39:12;2.23;;;1.80;;
2934;SDS011;2462;51.456;7.248;2023-07-31T09:41:42;2.60;;;1.47;;
2934;SDS011;2462;51.456;7.248;2023-07-31T09:44:09;3.00;;;2.00;;
2934;SDS011;2462;51.456;7.248;2023-07-31T09:46:35;2.87;;;1.80;;
2934;SDS011;2462;51.456;7.248;2023-07-31T09:49:12;2.53;;;1.77;;
2934;SDS011;2462;51.456;7.248;2023-07-31T09:51:39;2.07;;;1.60;;
2934;SDS011;2462;51.456;7.248;2023-07-31T09:54:12;3.37;;;1.70;;
2934;SDS011;2462;51.456;7.248;2023-07-31T09:56:45;2.20;;;1.40;;
2934;SDS011;2462;51.456;7.248;2023-07-31T09:59:12;2.20;;;1.70;;
2934;SDS011;2462;51.456;7.248;2023-07-31T10:01:39;1.87;;;1.70;;
2934;SDS011;2462;51.456;7.248;2023-07-31T10:04:06;2.70;;;1.70;;
2934;SDS011;2462;51.456;7.248;2023-07-31T10:06:34;2.23;;;1.40;;
2934;SDS011;2462;51.456;7.248;2023-07-31T10:09:00;1.77;;;1.60;;
2934;SDS011;2462;51.456;7.248;2023-07-31T10:11:28;2.40;;;1.57;;
2934;SDS011;2462;51.456;7.248;2023-07-31T10:13:55;1.73;;;1.43;;
2934;SDS011;2462;51.456;7.248;2023-07-31T10:16:21;7.60;;;1.87;;
2934;SDS011;2462;51.456;7.248;2023-07-31T10:18:48;2.37;;;1.73;;
2934;SDS011;2462;51.456;7.248;2023-07-31T10:21:15;2.83;;;1.20;;
2934;SDS011;2462;51.456;7.248;2023-07-31T10:23:41;3.13;;;2.00;;
2934;SDS011;2462;51.456;7.248;2023-07-31T10:26:08;2.17;;;1.77;;
2934;SDS011;2462;51.456;7.248;2023-07-31T10:28:35;2.33;;;1.60;;
2934;SDS011;2462;51.456;7.248;2023-07-31T10:31:02;3.00;;;1.67;;
2934;SDS011;2462;51.456;7.248;2023-07-31T10:33:28;3.43;;;1.80;;
2934;SDS011;2462;51.456;7.248;2023-07-31T10:38:40;2.60;;;1.80;;
2934;SDS011;2462;51.456;7.248;2023-07-31T10:41:10;5.80;;;1.70;;
2934;SDS011;2462;51.456;7.248;2023-07-31T10:43:36;2.17;;;1.20;;
2934;SDS011;2462;51.456;7.248;2023-07-31T10:46:06;2.00;;;1.20;;
2934;SDS011;2462;51.456;7.248;2023-07-31T10:48:33;3.30;;;1.30;;
2934;SDS011;2462;51.456;7.248;2023-07-31T10:51:01;2.33;;;1.60;;
2934;SDS011;2462;51.456;7.248;2023-07-31T10:53:32;2.00;;;1.40;;
2934;SDS011;2462;51.456;7.248;2023-07-31T10:55:59;1.30;;;1.13;;
2934;SDS011;2462;51.456;7.248;2023-07-31T10:58:25;3.57;;;1.77;;
2934;SDS011;2462;51.456;7.248;2023-07-31T11:00:54;1.33;;;1.13;;
2934;SDS011;2462;51.456;7.248;2023-07-31T11:03:24;4.90;;;1.20;;
2934;SDS011;2462;51.456;7.248;2023-07-31T11:10:46;3.13;;;1.30;;
2934;SDS011;2462;51.456;7.248;2023-07-31T11:13:12;1.53;;;1.43;;
2934;SDS011;2462;51.456;7.248;2023-07-31T11:15:39;1.23;;;1.00;;
2934;SDS011;2462;51.456;7.248;2023-07-31T11:18:05;3.40;;;1.20;;
2934;SDS011;2462;51.456;7.248;2023-07-31T11:20:33;2.73;;;1.30;;
2934;SDS011;2462;51.456;7.248;2023-07-31T11:23:02;3.60;;;1.73;;
2934;SDS011;2462;51.456;7.248;2023-07-31T11:25:29;1.77;;;1.10;;
2934;SDS011;2462;51.456;7.248;2023-07-31T11:27:55;1.40;;;1.20;;
2934;SDS011;2462;51.456;7.248;2023-07-31T11:30:22;2.00;;;1.30;;
2934;SDS011;2462;51.456;7.248;2023-07-31T11:32:48;3.67;;;1.80;;
2934;SDS011;2462;51.456;7.248;2023-07-31T11:35:15;2.00;;;1.67;;
2934;SDS011;2462;51.456;7.248;2023-07-31T11:37:42;2.80;;;1.60;;
2934;SDS011;2462;51.456;7.248;2023-07-31T11:40:08;2.50;;;1.77;;
2934;SDS011;2462;51.456;7.248;2023-07-31T11:42:35;1.60;;;1.43;;
2934;SDS011;2462;51.456;7.248;2023-07-31T11:45:04;2.67;;;1.67;;
2934;SDS011;2462;51.456;7.248;2023-07-31T11:47:34;3.17;;;2.10;;
2934;SDS011;2462;51.456;7.248;2023-07-31T11:50:01;3.33;;;1.40;;
2934;SDS011;2462;51.456;7.248;2023-07-31T11:52:28;2.17;;;1.80;;
2934;SDS011;2462;51.456;7.248;2023-07-31T11:54:55;1.70;;;1.60;;
2934;SDS011;2462;51.456;7.248;2023-07-31T11:57:22;1.80;;;1.30;;
2934;SDS011;2462;51.456;7.248;2023-07-31T11:59:48;1.73;;;1.27;;
2934;SDS011;2462;51.456;7.248;2023-07-31T12:02:15;2.30;;;1.40;;
2934;SDS011;2462;51.456;7.248;2023-07-31T12:04:42;4.73;;;2.20;;
2934;SDS011;2462;51.456;7.248;2023-07-31T12:07:08;1.60;;;1.47;;
2934;SDS011;2462;51.456;7.248;2023-07-31T12:09:34;2.43;;;1.50;;
2934;SDS011;2462;51.456;7.248;2023-07-31T12:12:00;4.43;;;2.17;;
2934;SDS011;2462;51.456;7.248;2023-07-31T12:14:27;1.80;;;1.40;;
2934;SDS011;2462;51.456;7.248;2023-07-31T12:17:01;1.43;;;1.20;;
2934;SDS011;2462;51.456;7.248;2023-07-31T12:19:29;2.30;;;1.53;;
2934;SDS011;2462;51.456;7.248;2023-07-31T12:21:56;2.30;;;1.57;;
2934;SDS011;2462;51.456;7.248;2023-07-31T12:24:22;1.97;;;1.57;;
2934;SDS011;2462;51.456;7.248;2023-07-31T12:26:48;1.80;;;1.43;;
2934;SDS011;2462;51.456;7.248;2023-07-31T12:29:14;2.10;;;1.50;;
2934;SDS011;2462;51.456;7.248;2023-07-31T12:31:41;2.07;;;1.10;;
2934;SDS011;2462;51.456;7.248;2023-07-31T12:34:16;2.40;;;1.53;;
2934;SDS011;2462;51.456;7.248;2023-07-31T12:36:43;1.40;;;1.07;;
2934;SDS011;2462;51.456;7.248;2023-07-31T12:39:10;2.33;;;1.30;;
2934;SDS011;2462;51.456;7.248;2023-07-31T12:41:36;1.70;;;1.40;;
2934;SDS011;2462;51.456;7.248;2023-07-31T12:44:02;2.33;;;1.57;;
2934;SDS011;2462;51.456;7.248;2023-07-31T12:46:28;1.50;;;1.40;;
2934;SDS011;2462;51.456;7.248;2023-07-31T12:48:54;1.37;;;1.20;;
2934;SDS011;2462;51.456;7.248;2023-07-31T12:51:20;1.63;;;1.03;;
2934;SDS011;2462;51.456;7.248;2023-07-31T12:53:46;1.60;;;1.27;;
2934;SDS011;2462;51.456;7.248;2023-07-31T12:56:13;4.50;;;1.30;;
2934;SDS011;2462;51.456;7.248;2023-07-31T12:58:39;1.63;;;1.30;;
2934;SDS011;2462;51.456;7.248;2023-07-31T13:01:05;1.30;;;1.20;;
2934;SDS011;2462;51.456;7.248;2023-07-31T13:03:31;1.67;;;1.30;;
2934;SDS011;2462;51.456;7.248;2023-07-31T13:05:57;1.53;;;1.30;;
2934;SDS011;2462;51.456;7.248;2023-07-31T13:08:23;1.83;;;1.67;;
2934;SDS011;2462;51.456;7.248;2023-07-31T13:10:49;3.40;;;1.40;;
2934;SDS011;2462;51.456;7.248;2023-07-31T13:13:15;2.20;;;1.57;;
2934;SDS011;2462;51.456;7.248;2023-07-31T13:15:43;1.60;;;1.50;;
2934;SDS011;2462;51.456;7.248;2023-07-31T13:18:10;1.57;;;1.33;;
2934;SDS011;2462;51.456;7.248;2023-07-31T13:20:36;1.50;;;1.03;;
2934;SDS011;2462;51.456;7.248;2023-07-31T13:23:02;1.40;;;1.23;;
2934;SDS011;2462;51.456;7.248;2023-07-31T13:25:28;2.07;;;1.40;;
2934;SDS011;2462;51.456;7.248;2023-07-31T13:27:54;1.80;;;1.40;;
2934;SDS011;2462;51.456;7.248;2023-07-31T13:30:20;2.60;;;1.10;;
2934;SDS011;2462;51.456;7.248;2023-07-31T13:32:46;1.80;;;1.40;;
2934;SDS011;2462;51.456;7.248;2023-07-31T13:35:12;1.73;;;1.20;;
2934;SDS011;2462;51.456;7.248;2023-07-31T13:37:38;1.47;;;1.10;;
2934;SDS011;2462;51.456;7.248;2023-07-31T13:40:05;3.20;;;1.37;;
2934;SDS011;2462;51.456;7.248;2023-07-31T13:42:31;1.90;;;1.00;;
2934;SDS011;2462;51.456;7.248;2023-07-31T13:44:57;1.47;;;1.00;;
2934;SDS011;2462;51.456;7.248;2023-07-31T13:47:23;5.90;;;1.53;;
2934;SDS011;2462;51.456;7.248;2023-07-31T13:49:50;1.80;;;1.37;;
2934;SDS011;2462;51.456;7.248;2023-07-31T13:52:16;1.50;;;1.30;;
2934;SDS011;2462;51.456;7.248;2023-07-31T13:54:41;1.20;;;1.07;;
2934;SDS011;2462;51.456;7.248;2023-07-31T13:57:08;1.63;;;1.10;;
2934;SDS011;2462;51.456;7.248;2023-07-31T13:59:34;1.83;;;1.00;;
2934;SDS011;2462;51.456;7.248;2023-07-31T14:02:00;1.30;;;1.20;;
2934;SDS011;2462;51.456;7.248;2023-07-31T14:04:25;1.20;;;1.10;;
2934;SDS011;2462;51.456;7.248;2023-07-31T14:06:51;2.00;;;1.47;;
2934;SDS011;2462;51.456;7.248;2023-07-31T14:09:17;1.40;;;1.20;;
2934;SDS011;2462;51.456;7.248;2023-07-31T14:11:43;1.87;;;1.30;;
2934;SDS011;2462;51.456;7.248;2023-07-31T14:14:09;3.70;;;1.77;;
2934;SDS011;2462;51.456;7.248;2023-07-31T14:16:35;1.63;;;1.47;;
2934;SDS011;2462;51.456;7.248;2023-07-31T14:19:01;1.60;;;1.20;;
2934;SDS011;2462;51.456;7.248;2023-07-31T14:21:27;1.47;;;1.37;;
2934;SDS011;2462;51.456;7.248;2023-07-31T14:23:53;3.93;;;1.43;;
2934;SDS011;2462;51.456;7.248;2023-07-31T14:26:19;3.23;;;1.37;;
2934;SDS011;2462;51.456;7.248;2023-07-31T14:28:45;3.37;;;1.43;;
2934;SDS011;2462;51.456;7.248;2023-07-31T14:31:12;1.93;;;1.53;;
2934;SDS011;2462;51.456;7.248;2023-07-31T14:33:38;1.40;;;1.30;;
2934;SDS011;2462;51.456;7.248;2023-07-31T14:36:04;1.50;;;1.30;;
2934;SDS011;2462;51.456;7.248;2023-07-31T14:38:30;2.00;;;1.30;;
2934;SDS011;2462;51.456;7.248;2023-07-31T14:40:56;2.13;;;1.90;;
2934;SDS011;2462;51.456;7.248;2023-07-31T14:43:22;2.83;;;1.60;;
2934;SDS011;2462;51.456;7.248;2023-07-31T14:45:48;1.50;;;1.23;;
2934;SDS011;2462;51.456;7.248;2023-07-31T14:48:14;2.73;;;2.20;;
2934;SDS011;2462;51.456;7.248;2023-07-31T14:50:40;2.00;;;1.70;;
2934;SDS011;2462;51.456;7.248;2023-07-31T14:53:06;1.87;;;1.67;;
2934;SDS011;2462;51.456;7.248;2023-07-31T14:55:32;3.20;;;1.80;;
2934;SDS011;2462;51.456;7.248;2023-07-31T14:57:58;1.80;;;1.63;;
2934;SDS011;2462;51.456;7.248;2023-07-31T15:00:24;2.00;;;1.53;;
2934;SDS011;2462;51.456;7.248;2023-07-31T15:02:51;3.40;;;2.00;;
2934;SDS011;2462;51.456;7.248;2023-07-31T15:05:17;2.10;;;1.80;;
2934;SDS011;2462;51.456;7.248;2023-07-31T15:07:43;3.60;;;1.47;;
2934;SDS011;2462;51.456;7.248;2023-07-31T15:10:09;1.70;;;1.50;;
2934;SDS011;2462;51.456;7.248;2023-07-31T15:12:35;2.47;;;1.80;;
2934;SDS011;2462;51.456;7.248;2023-07-31T15:15:02;2.20;;;1.90;;
2934;SDS011;2462;51.456;7.248;2023-07-31T15:17:28;3.10;;;1.87;;
2934;SDS011;2462;51.456;7.248;2023-07-31T15:19:55;3.70;;;2.03;;
2934;SDS011;2462;51.456;7.248;2023-07-31T15:22:21;2.27;;;1.87;;
2934;SDS011;2462;51.456;7.248;2023-07-31T15:24:46;1.93;;;1.73;;
2934;SDS011;2462;51.456;7.248;2023-07-31T15:27:14;2.17;;;1.83;;
2934;SDS011;2462;51.456;7.248;2023-07-31T15:29:40;2.60;;;2.17;;